Time;durP1;ratioP1;P1;durP2;ratioP2;P2;SDS_P1;SDS_P2;PMS_P1;PMS_P2;Temp;Humidity;BMP_temperature;BMP_pressure;BME280_temperature;BME280_humidity;BME280_pressure;Samples;Min_cycle;Max_cycle;Signal;HPM_P1;HPM_P2
2023/09/27 00:02:21;;;;;;;0.03;0.03;;;17.30;99.90;;;;;;4995571;28;20050;-70
2023/09/27 00:04:47;;;;;;;0.00;0.00;;;17.40;99.90;;;;;;4995480;28;20049;-69
2023/09/27 00:07:13;;;;;;;0.03;0.03;;;17.40;99.90;;;;;;4995491;28;20038;-71
2023/09/27 00:09:38;;;;;;;0.10;0.10;;;17.50;99.90;;;;;;4995144;28;20085;-70
2023/09/27 00:12:05;;;;;;;0.00;0.00;;;17.50;99.90;;;;;;4995633;28;20403;-70
2023/09/27 00:14:34;;;;;;;0.05;0.05;;;17.70;99.90;;;;;;4995170;28;20056;-70
2023/09/27 00:17:00;;;;;;;0.00;0.00;;;17.70;99.90;;;;;;4995252;28;20081;-70
2023/09/27 00:19:26;;;;;;;0.00;0.00;;;17.70;99.90;;;;;;4995012;28;20432;-76
2023/09/27 00:21:52;;;;;;;0.00;0.00;;;17.50;99.90;;;;;;4995267;28;20391;-75
2023/09/27 00:24:18;;;;;;;0.00;0.00;;;17.40;99.90;;;;;;4994871;28;20033;-71
2023/09/27 00:26:44;;;;;;;2.55;0.57;;;17.40;99.90;;;;;;4994991;28;20039;-72
2023/09/27 00:29:10;;;;;;;0.00;0.00;;;17.30;99.90;;;;;;4994983;28;20041;-75
2023/09/27 00:31:36;;;;;;;0.00;0.00;;;17.40;99.90;;;;;;4994817;28;20038;-69
2023/09/27 00:34:01;;;;;;;0.00;0.00;;;17.40;99.90;;;;;;4993852;28;20022;-75
2023/09/27 00:36:28;;;;;;;0.00;0.00;;;17.20;99.90;;;;;;4994718;28;20030;-69
2023/09/27 00:38:53;;;;;;;0.00;0.00;;;17.10;99.90;;;;;;4994885;28;20495;-74
2023/09/27 00:41:20;;;;;;;0.05;0.05;;;16.80;99.90;;;;;;4994573;28;20084;-75
2023/09/27 00:43:46;;;;;;;0.00;0.00;;;16.70;99.90;;;;;;4993480;28;20426;-76
2023/09/27 00:46:16;;;;;;;0.00;0.00;;;16.50;99.90;;;;;;4994683;28;20030;-71
2023/09/27 00:48:42;;;;;;;0.13;0.13;;;16.40;99.90;;;;;;4994551;28;20547;-76
2023/09/27 00:51:08;;;;;;;0.00;0.00;;;16.60;99.90;;;;;;4993409;28;20041;-71
2023/09/27 00:53:37;;;;;;;0.10;0.10;;;16.70;99.90;;;;;;4992839;28;20034;-71
2023/09/27 00:56:04;;;;;;;0.00;0.00;;;16.80;99.90;;;;;;4994609;28;20026;-70
2023/09/27 00:58:34;;;;;;;0.00;0.00;;;16.80;99.90;;;;;;4994410;28;20030;-70
2023/09/27 01:01:00;;;;;;;0.00;0.00;;;16.80;99.90;;;;;;4994232;28;20502;-75
2023/09/27 01:03:26;;;;;;;0.00;0.00;;;16.90;99.90;;;;;;4994356;28;20378;-74
2023/09/27 01:05:54;;;;;;;0.73;0.73;;;16.90;99.90;;;;;;4992724;28;20030;-74
2023/09/27 01:08:19;;;;;;;0.15;0.15;;;16.50;99.90;;;;;;4993821;28;20022;-75
2023/09/27 01:10:46;;;;;;;0.10;0.10;;;16.10;99.90;;;;;;4994115;28;20042;-70
2023/09/27 01:13:13;;;;;;;0.03;0.03;;;16.30;99.90;;;;;;4992872;28;20040;-71
2023/09/27 01:15:38;;;;;;;0.10;0.10;;;16.40;99.90;;;;;;4993045;28;20054;-70
2023/09/27 01:18:04;;;;;;;0.10;0.10;;;16.30;99.90;;;;;;4992917;28;20408;-73
2023/09/27 01:20:32;;;;;;;1.30;1.20;;;16.50;99.90;;;;;;4994201;28;20032;-72
2023/09/27 01:23:03;;;;;;;0.00;0.00;;;16.40;99.90;;;;;;4993613;28;20046;-69
2023/09/27 01:25:31;;;;;;;0.00;0.00;;;16.40;99.90;;;;;;4994150;28;20467;-72
2023/09/27 01:27:59;;;;;;;0.20;0.20;;;16.40;99.90;;;;;;4992132;28;20117;-75
2023/09/27 01:30:25;;;;;;;0.00;0.00;;;16.50;99.90;;;;;;4994293;28;20108;-71
2023/09/27 01:32:51;;;;;;;0.10;0.10;;;16.30;99.90;;;;;;4993702;28;20486;-75
2023/09/27 01:35:17;;;;;;;0.00;0.00;;;16.10;99.90;;;;;;4991016;28;20022;-73
2023/09/27 01:37:43;;;;;;;0.00;0.00;;;16.30;99.90;;;;;;4993541;28;20038;-70
2023/09/27 01:40:09;;;;;;;0.00;0.00;;;16.20;99.90;;;;;;4994251;28;20026;-71
2023/09/27 01:42:42;;;;;;;0.00;0.00;;;16.40;99.90;;;;;;4980124;28;20419;-70
2023/09/27 01:45:09;;;;;;;0.10;0.10;;;16.10;99.90;;;;;;4993929;28;20022;-71
2023/09/27 01:47:34;;;;;;;0.00;0.00;;;15.90;99.90;;;;;;4993633;28;20506;-70
2023/09/27 01:50:01;;;;;;;0.10;0.10;;;15.80;99.90;;;;;;4993826;28;20034;-72
2023/09/27 01:52:27;;;;;;;2.78;2.63;;;15.90;99.90;;;;;;4992162;28;20033;-70
2023/09/27 01:54:52;;;;;;;0.10;0.10;;;16.20;99.90;;;;;;4993690;28;20070;-70
2023/09/27 01:57:18;;;;;;;0.30;0.30;;;16.10;99.90;;;;;;4992304;28;20462;-70
2023/09/27 01:59:44;;;;;;;0.10;0.10;;;16.20;99.90;;;;;;4992370;28;20026;-70
2023/09/27 02:02:10;;;;;;;0.00;0.00;;;16.10;99.90;;;;;;4992138;28;20038;-70
2023/09/27 02:04:36;;;;;;;0.00;0.00;;;16.20;99.90;;;;;;4992376;28;20034;-70
2023/09/27 02:07:02;;;;;;;0.00;0.00;;;16.20;99.90;;;;;;4991784;28;20038;-70
2023/09/27 02:09:27;;;;;;;0.93;0.73;;;16.30;99.90;;;;;;4993271;28;20034;-70
2023/09/27 02:11:55;;;;;;;0.08;0.08;;;16.10;99.90;;;;;;4993485;28;20034;-69
2023/09/27 02:14:21;;;;;;;0.00;0.00;;;16.10;99.90;;;;;;4992344;28;20018;-70
2023/09/27 02:16:47;;;;;;;0.00;0.00;;;16.10;99.90;;;;;;4992407;28;20471;-70
2023/09/27 02:19:13;;;;;;;0.10;0.10;;;16.20;99.90;;;;;;4996447;28;20372;-70
2023/09/27 02:21:39;;;;;;;0.00;0.00;;;16.00;99.90;;;;;;4996058;28;20034;-72
2023/09/27 02:24:09;;;;;;;0.03;0.03;;;16.20;99.90;;;;;;4997249;28;20042;-70
2023/09/27 02:26:35;;;;;;;0.00;0.00;;;16.10;99.90;;;;;;4996255;28;20348;-70
2023/09/27 02:29:02;;;;;;;0.00;0.00;;;16.10;99.90;;;;;;4997252;28;20050;-71
2023/09/27 02:31:28;;;;;;;1.88;1.48;;;16.10;99.90;;;;;;4997609;28;20022;-70
2023/09/27 02:33:53;;;;;;;0.00;0.00;;;16.00;99.90;;;;;;4996992;28;20069;-71
2023/09/27 02:36:19;;;;;;;0.90;0.90;;;15.70;99.90;;;;;;4995900;28;20031;-72
2023/09/27 02:38:45;;;;;;;0.10;0.10;;;15.60;99.90;;;;;;4995428;28;20104;-71
2023/09/27 02:41:11;;;;;;;0.10;0.10;;;15.60;99.90;;;;;;4995728;28;20034;-72
2023/09/27 02:43:36;;;;;;;0.00;0.00;;;15.60;99.90;;;;;;4997048;28;20034;-70
2023/09/27 02:46:03;;;;;;;0.10;0.10;;;15.80;99.90;;;;;;4995801;28;20498;-72
2023/09/27 02:48:29;;;;;;;0.00;0.00;;;15.90;99.90;;;;;;4996422;28;20117;-76
2023/09/27 02:50:55;;;;;;;0.10;0.10;;;15.90;99.90;;;;;;4997012;28;20057;-74
2023/09/27 02:53:21;;;;;;;0.63;0.60;;;15.80;99.90;;;;;;4975884;28;20050;-70
2023/09/27 02:55:47;;;;;;;0.65;0.32;;;16.00;99.90;;;;;;4986723;28;20026;-69
2023/09/27 02:58:13;;;;;;;1.77;1.70;;;15.80;99.90;;;;;;4996475;28;20026;-69
2023/09/27 03:00:41;;;;;;;0.00;0.00;;;15.70;99.90;;;;;;4995402;28;20037;-70
2023/09/27 03:03:09;;;;;;;0.00;0.00;;;15.90;99.90;;;;;;4995071;28;20038;-70
2023/09/27 03:05:35;;;;;;;0.10;0.10;;;16.00;99.90;;;;;;4995612;28;20062;-70
2023/09/27 03:08:02;;;;;;;0.00;0.00;;;16.10;99.90;;;;;;4996505;28;20038;-71
2023/09/27 03:10:28;;;;;;;0.00;0.00;;;16.10;99.90;;;;;;4996524;28;20032;-69
2023/09/27 03:12:58;;;;;;;0.00;0.00;;;16.00;99.90;;;;;;4995305;28;20509;-71
2023/09/27 03:15:24;;;;;;;0.00;0.00;;;15.90;99.90;;;;;;4995050;28;20505;-70
2023/09/27 03:17:50;;;;;;;0.43;0.43;;;16.00;99.90;;;;;;4996511;28;20026;-69
2023/09/27 03:20:17;;;;;;;0.00;0.00;;;16.10;99.90;;;;;;4995821;28;20157;-70
2023/09/27 03:22:43;;;;;;;0.10;0.10;;;16.20;99.90;;;;;;4991537;28;20046;-70
2023/09/27 03:25:09;;;;;;;0.00;0.00;;;16.10;99.90;;;;;;4995204;28;20085;-70
2023/09/27 03:27:36;;;;;;;0.00;0.00;;;15.90;99.90;;;;;;4994727;28;20057;-69
2023/09/27 03:30:04;;;;;;;0.10;0.10;;;15.60;99.90;;;;;;4980901;28;20019;-70
2023/09/27 03:32:32;;;;;;;1.92;1.83;;;15.60;99.90;;;;;;4975848;28;20018;-70
2023/09/27 03:34:59;;;;;;;0.10;0.10;;;15.30;99.90;;;;;;4983474;28;20065;-70
2023/09/27 03:37:25;;;;;;;0.20;0.20;;;15.10;99.90;;;;;;4993616;28;20023;-70
2023/09/27 03:39:53;;;;;;;0.00;0.00;;;15.20;99.90;;;;;;4995149;28;20030;-69
2023/09/27 03:42:20;;;;;;;0.10;0.10;;;15.40;99.90;;;;;;4994079;28;20549;-69
2023/09/27 03:44:47;;;;;;;0.10;0.10;;;15.60;99.90;;;;;;5011126;28;20030;-74
2023/09/27 03:47:12;;;;;;;0.00;0.00;;;15.80;99.90;;;;;;4995917;28;20030;-73
2023/09/27 03:49:41;;;;;;;0.00;0.00;;;15.90;99.90;;;;;;4994290;28;20030;-70
2023/09/27 03:52:08;;;;;;;0.00;0.00;;;15.90;99.90;;;;;;4994741;28;20113;-71
2023/09/27 03:54:34;;;;;;;0.00;0.00;;;16.00;99.90;;;;;;4994581;28;20026;-70
2023/09/27 03:57:00;;;;;;;0.10;0.10;;;16.00;99.90;;;;;;4994344;28;20052;-72
2023/09/27 03:59:26;;;;;;;0.00;0.00;;;15.70;99.90;;;;;;4994329;28;20507;-70
2023/09/27 04:01:52;;;;;;;0.08;0.08;;;15.90;99.90;;;;;;4993984;28;20058;-70
2023/09/27 04:04:18;;;;;;;0.00;0.00;;;16.00;99.90;;;;;;4993998;28;20439;-71
2023/09/27 04:06:44;;;;;;;0.00;0.00;;;16.00;99.90;;;;;;4994981;28;20050;-75
2023/09/27 04:09:10;;;;;;;0.00;0.00;;;15.90;99.90;;;;;;4995311;28;20034;-71
2023/09/27 04:11:37;;;;;;;0.00;0.00;;;16.00;99.90;;;;;;4995239;28;20031;-71
2023/09/27 04:14:04;;;;;;;0.00;0.00;;;16.10;99.90;;;;;;4995307;28;20022;-71
2023/09/27 04:16:30;;;;;;;0.10;0.10;;;16.10;99.90;;;;;;4994687;28;20061;-69
2023/09/27 04:18:57;;;;;;;0.00;0.00;;;16.30;99.90;;;;;;5443890;23;20205;-70
2023/09/27 04:21:24;;;;;;;0.00;0.00;;;15.90;99.90;;;;;;4994912;28;20034;-70
2023/09/27 04:23:56;;;;;;;0.00;0.00;;;15.80;99.90;;;;;;4995216;28;20034;-70
2023/09/27 04:26:23;;;;;;;0.38;0.38;;;15.70;99.90;;;;;;4994028;28;20447;-70
2023/09/27 04:28:53;;;;;;;0.00;0.00;;;15.60;99.90;;;;;;4994754;28;20057;-70
2023/09/27 04:31:19;;;;;;;0.10;0.10;;;15.70;99.90;;;;;;4994511;28;20097;-70
2023/09/27 04:33:47;;;;;;;0.00;0.00;;;15.70;99.90;;;;;;4994849;28;20049;-70
2023/09/27 04:36:17;;;;;;;0.00;0.00;;;15.60;99.90;;;;;;4994856;28;20022;-69
2023/09/27 04:38:47;;;;;;;0.00;0.00;;;15.80;99.90;;;;;;4993445;28;20487;-70
2023/09/27 04:41:14;;;;;;;0.00;0.00;;;15.90;99.90;;;;;;4992127;28;20022;-70
2023/09/27 04:43:41;;;;;;;0.10;0.10;;;15.90;99.90;;;;;;4994974;28;20057;-69
2023/09/27 04:46:11;;;;;;;0.08;0.08;;;15.90;99.90;;;;;;4994541;28;20463;-70
2023/09/27 04:48:36;;;;;;;0.00;0.00;;;15.90;99.90;;;;;;4994621;28;20133;-70
2023/09/27 04:51:03;;;;;;;0.00;0.00;;;15.90;99.90;;;;;;4995030;28;20097;-76
2023/09/27 04:53:30;;;;;;;0.00;0.00;;;15.90;99.90;;;;;;4994938;28;20023;-77
2023/09/27 04:55:57;;;;;;;0.63;0.63;;;16.00;99.90;;;;;;4993367;28;20034;-76
2023/09/27 04:58:22;;;;;;;0.00;0.00;;;15.90;99.90;;;;;;4994222;28;20050;-76
2023/09/27 05:00:48;;;;;;;0.10;0.10;;;15.80;99.90;;;;;;4994131;28;20118;-69
2023/09/27 05:03:14;;;;;;;0.05;0.05;;;15.70;99.90;;;;;;4994431;28;20060;-70
2023/09/27 05:05:40;;;;;;;0.00;0.00;;;15.80;99.90;;;;;;4994308;28;20391;-70
2023/09/27 05:08:05;;;;;;;0.00;0.00;;;15.90;99.90;;;;;;4994406;28;20045;-76
2023/09/27 05:10:31;;;;;;;0.03;0.03;;;16.00;99.90;;;;;;4994080;28;20033;-74
2023/09/27 05:12:57;;;;;;;0.00;0.00;;;15.90;99.90;;;;;;4994084;28;20148;-76
2023/09/27 05:15:23;;;;;;;2.20;2.00;;;15.90;99.90;;;;;;4994024;28;20085;-75
2023/09/27 05:17:48;;;;;;;0.13;0.13;;;15.60;99.90;;;;;;4994098;28;20045;-76
2023/09/27 05:20:14;;;;;;;0.15;0.15;;;15.60;99.90;;;;;;4993838;28;20505;-74
2023/09/27 05:22:41;;;;;;;0.00;0.00;;;15.70;99.90;;;;;;4992749;28;20042;-76
2023/09/27 05:25:08;;;;;;;0.00;0.00;;;15.50;99.90;;;;;;4994255;28;20038;-76
2023/09/27 05:30:16;;;;;;;0.00;0.00;;;15.70;99.90;;;;;;5004124;28;20093;-73
2023/09/27 05:32:42;;;;;;;0.00;0.00;;;15.70;99.90;;;;;;4990922;28;20442;-72
2023/09/27 05:35:09;;;;;;;0.00;0.00;;;15.70;99.90;;;;;;5012937;28;20017;-75
2023/09/27 05:37:35;;;;;;;0.00;0.00;;;15.70;99.90;;;;;;5000547;28;20490;-74
2023/09/27 05:40:04;;;;;;;0.00;0.00;;;15.70;99.90;;;;;;5000945;28;20022;-75
2023/09/27 05:42:30;;;;;;;0.10;0.10;;;15.30;99.90;;;;;;5001732;28;20038;-73
2023/09/27 05:44:56;;;;;;;5.38;2.50;;;15.00;99.90;;;;;;5010996;28;20033;-73
2023/09/27 05:47:24;;;;;;;0.00;0.00;;;15.00;99.90;;;;;;5001832;28;20026;-73
2023/09/27 05:49:50;;;;;;;0.00;0.00;;;15.20;99.90;;;;;;4998276;28;20042;-72
2023/09/27 05:52:17;;;;;;;0.00;0.00;;;15.40;99.90;;;;;;5003419;28;20030;-74
2023/09/27 05:54:44;;;;;;;0.00;0.00;;;15.70;99.90;;;;;;5009006;28;20496;-74
2023/09/27 05:57:10;;;;;;;0.15;0.15;;;15.80;99.90;;;;;;5002075;28;20022;-72
2023/09/27 05:59:40;;;;;;;0.05;0.05;;;15.90;99.90;;;;;;5005967;28;20100;-72
2023/09/27 06:02:09;;;;;;;0.00;0.00;;;16.00;99.90;;;;;;5002587;28;20036;-72
2023/09/27 06:04:36;;;;;;;0.00;0.00;;;16.10;99.90;;;;;;5003851;28;20057;-74
2023/09/27 06:07:02;;;;;;;0.10;0.10;;;15.90;99.90;;;;;;4995435;28;20026;-73
2023/09/27 06:09:27;;;;;;;0.00;0.00;;;16.20;99.90;;;;;;5011425;28;20026;-73
2023/09/27 06:11:53;;;;;;;0.00;0.00;;;16.20;99.90;;;;;;5007771;28;20379;-73
2023/09/27 06:14:21;;;;;;;0.10;0.10;;;16.10;99.90;;;;;;5003083;28;20089;-73
2023/09/27 06:16:47;;;;;;;0.52;0.52;;;16.10;99.90;;;;;;5002686;28;20030;-72
2023/09/27 06:19:13;;;;;;;0.00;0.00;;;16.10;99.90;;;;;;5004146;28;20530;-72
2023/09/27 06:21:39;;;;;;;0.10;0.10;;;16.00;99.90;;;;;;5003402;28;20045;-73
2023/09/27 06:24:05;;;;;;;0.00;0.00;;;16.00;99.90;;;;;;5005328;28;20391;-73
2023/09/27 06:26:31;;;;;;;0.08;0.08;;;16.10;99.90;;;;;;5009902;28;20022;-73
2023/09/27 06:28:58;;;;;;;0.03;0.03;;;16.00;99.90;;;;;;4997784;28;20034;-73
2023/09/27 06:31:24;;;;;;;1.35;1.08;;;15.90;99.90;;;;;;5008414;28;20049;-74
2023/09/27 06:33:49;;;;;;;0.10;0.10;;;16.00;99.90;;;;;;5010076;28;20421;-73
2023/09/27 06:36:16;;;;;;;2.72;2.53;;;16.20;99.90;;;;;;5004825;28;20031;-73
2023/09/27 06:38:42;;;;;;;0.43;0.43;;;16.10;99.90;;;;;;4995714;28;20410;-74
2023/09/27 06:41:08;;;;;;;0.75;0.38;;;16.00;99.90;;;;;;5004744;28;20367;-73
2023/09/27 06:43:34;;;;;;;0.00;0.00;;;15.60;99.90;;;;;;5003467;28;20044;-72
2023/09/27 06:46:07;;;;;;;0.20;0.20;;;15.80;99.90;;;;;;5012139;28;20596;-73
2023/09/27 06:48:33;;;;;;;0.05;0.05;;;15.90;99.90;;;;;;4995795;28;20069;-72
2023/09/27 06:50:59;;;;;;;0.20;0.20;;;15.90;99.90;;;;;;4998368;28;20054;-73
2023/09/27 06:53:26;;;;;;;0.00;0.00;;;16.10;99.90;;;;;;5002118;28;20072;-72
2023/09/27 06:55:53;;;;;;;0.00;0.00;;;16.10;99.90;;;;;;5011753;28;20030;-72
2023/09/27 06:58:23;;;;;;;0.00;0.00;;;16.20;99.90;;;;;;5006378;28;20029;-73
2023/09/27 07:00:51;;;;;;;0.32;0.32;;;16.40;99.90;;;;;;5003059;28;20046;-73
2023/09/27 07:03:19;;;;;;;0.00;0.00;;;16.40;99.90;;;;;;5000604;28;20065;-72
2023/09/27 07:05:46;;;;;;;0.00;0.00;;;16.80;99.90;;;;;;5002160;28;20058;-74
2023/09/27 07:08:13;;;;;;;0.00;0.00;;;17.40;99.90;;;;;;5007427;28;20034;-74
2023/09/27 07:10:40;;;;;;;1.38;0.98;;;17.70;99.90;;;;;;5008168;28;20548;-73
2023/09/27 07:13:06;;;;;;;0.00;0.00;;;17.60;99.90;;;;;;5011409;28;20053;-73
2023/09/27 07:15:32;;;;;;;0.00;0.00;;;17.60;99.90;;;;;;5007136;28;20064;-73
2023/09/27 07:17:58;;;;;;;0.00;0.00;;;17.50;99.90;;;;;;5005529;28;20429;-72
2023/09/27 07:20:27;;;;;;;0.52;0.52;;;17.70;99.90;;;;;;5007810;28;20101;-73
2023/09/27 07:22:54;;;;;;;0.52;0.52;;;17.90;99.90;;;;;;5009841;28;20567;-74
2023/09/27 07:25:21;;;;;;;0.65;0.65;;;17.90;99.90;;;;;;5000429;28;20073;-76
2023/09/27 07:27:52;;;;;;;0.47;0.47;;;17.70;99.90;;;;;;4999758;28;20529;-71
2023/09/27 07:30:23;;;;;;;0.88;0.22;;;17.70;99.90;;;;;;5009265;28;20038;-74
2023/09/27 07:32:50;;;;;;;0.10;0.10;;;17.80;99.90;;;;;;5009224;28;20367;-72
2023/09/27 07:35:17;;;;;;;0.00;0.00;;;17.90;99.90;;;;;;5013293;28;20097;-71
2023/09/27 07:37:44;;;;;;;0.00;0.00;;;17.90;99.90;;;;;;4997365;28;20026;-72
2023/09/27 07:40:14;;;;;;;0.25;0.25;;;18.20;99.90;;;;;;5002521;28;20076;-73
2023/09/27 07:42:44;;;;;;;0.00;0.00;;;18.20;99.90;;;;;;4997875;28;20093;-72
2023/09/27 07:45:21;;;;;;;0.38;0.32;;;18.40;99.90;;;;;;5002985;28;20077;-73
2023/09/27 07:47:53;;;;;;;0.75;0.70;;;18.50;99.90;;;;;;5002236;28;20133;-73
2023/09/27 07:50:27;;;;;;;0.00;0.00;;;18.60;99.90;;;;;;5011355;28;20494;-74
2023/09/27 07:52:54;;;;;;;0.05;0.05;;;18.50;99.90;;;;;;5002691;28;20073;-73
2023/09/27 07:55:21;;;;;;;1.73;1.27;;;18.60;99.90;;;;;;5010518;28;20014;-73
2023/09/27 07:57:49;;;;;;;0.10;0.10;;;18.80;99.90;;;;;;5013544;28;20026;-73
2023/09/27 08:00:15;;;;;;;0.30;0.30;;;18.90;99.90;;;;;;5012597;28;20113;-72
2023/09/27 08:02:45;;;;;;;0.65;0.65;;;18.90;99.90;;;;;;5000808;28;20034;-73
2023/09/27 08:05:16;;;;;;;0.85;0.80;;;18.80;99.90;;;;;;5006088;28;20445;-73
2023/09/27 08:07:44;;;;;;;0.03;0.03;;;18.90;99.90;;;;;;5009837;28;20040;-73
2023/09/27 08:10:10;;;;;;;0.00;0.00;;;18.90;99.90;;;;;;5013832;28;20029;-75
2023/09/27 08:12:38;;;;;;;0.00;0.00;;;19.00;99.90;;;;;;4998251;28;20026;-73
2023/09/27 08:15:06;;;;;;;0.00;0.00;;;19.00;99.90;;;;;;5001758;28;20026;-74
2023/09/27 08:17:33;;;;;;;0.05;0.05;;;18.90;99.90;;;;;;5009373;28;20528;-74
2023/09/27 08:20:09;;;;;;;0.68;0.43;;;18.90;99.90;;;;;;5012028;28;20054;-73
2023/09/27 08:22:36;;;;;;;0.00;0.00;;;19.00;99.90;;;;;;4996251;28;20042;-73
2023/09/27 08:25:05;;;;;;;0.00;0.00;;;19.10;99.90;;;;;;4999772;28;20023;-72
2023/09/27 08:27:31;;;;;;;0.03;0.03;;;19.30;99.90;;;;;;5006448;28;20029;-73
2023/09/27 08:29:57;;;;;;;0.17;0.10;;;19.40;99.90;;;;;;5010351;28;20034;-72
2023/09/27 08:32:23;;;;;;;2.83;0.80;;;19.40;99.90;;;;;;5011092;28;20041;-73
2023/09/27 08:34:48;;;;;;;0.10;0.10;;;19.30;99.90;;;;;;5001483;28;20030;-73
2023/09/27 08:37:15;;;;;;;0.10;0.10;;;19.30;99.90;;;;;;5005533;28;20427;-72
2023/09/27 08:39:41;;;;;;;0.10;0.10;;;19.20;99.90;;;;;;5007851;28;20030;-72
2023/09/27 08:42:07;;;;;;;0.00;0.00;;;19.20;99.90;;;;;;5013345;28;20030;-72
2023/09/27 08:44:34;;;;;;;0.25;0.25;;;19.50;99.90;;;;;;5009535;28;20463;-73
2023/09/27 08:47:01;;;;;;;0.20;0.20;;;19.50;99.90;;;;;;5007265;28;20036;-73
2023/09/27 08:49:26;;;;;;;0.00;0.00;;;19.60;99.90;;;;;;4996758;28;20038;-73
2023/09/27 08:51:53;;;;;;;0.10;0.10;;;19.60;99.90;;;;;;5003758;28;20034;-72
2023/09/27 08:54:21;;;;;;;1.65;0.52;;;19.70;99.90;;;;;;5006643;28;20026;-73
2023/09/27 08:56:50;;;;;;;0.00;0.00;;;19.90;99.90;;;;;;5010055;28;20049;-73
2023/09/27 08:59:18;;;;;;;1.33;1.27;;;20.10;99.90;;;;;;5007565;28;20022;-72
2023/09/27 09:01:47;;;;;;;0.00;0.00;;;20.30;99.90;;;;;;5002027;28;20058;-74
2023/09/27 09:04:13;;;;;;;0.00;0.00;;;20.30;99.90;;;;;;5005460;28;20033;-72
2023/09/27 09:06:40;;;;;;;0.00;0.00;;;20.50;99.90;;;;;;5007060;28;20029;-73
2023/09/27 09:09:10;;;;;;;1.55;0.88;;;20.50;99.90;;;;;;5001246;28;20459;-73
2023/09/27 09:11:47;;;;;;;0.00;0.00;;;20.60;99.90;;;;;;5001694;28;20046;-73
2023/09/27 09:14:22;;;;;;;0.00;0.00;;;21.00;99.90;;;;;;5009968;28;20455;-72
2023/09/27 09:16:52;;;;;;;0.03;0.03;;;21.20;99.90;;;;;;5003161;28;20034;-73
2023/09/27 09:19:22;;;;;;;5.85;1.65;;;21.40;99.90;;;;;;5010858;28;20033;-72
2023/09/27 09:22:00;;;;;;;0.00;0.00;;;21.20;99.90;;;;;;4999678;28;20030;-72
2023/09/27 09:24:26;;;;;;;0.10;0.10;;;21.30;99.90;;;;;;5010204;28;20045;-73
2023/09/27 09:27:09;;;;;;;0.10;0.10;;;21.60;99.90;;;;;;5000934;28;20068;-73
2023/09/27 09:29:54;;;;;;;0.00;0.00;;;22.10;99.90;;;;;;5002602;28;20478;-72
2023/09/27 09:32:25;;;;;;;0.00;0.00;;;21.70;99.90;;;;;;5010792;28;20092;-73
2023/09/27 09:34:52;;;;;;;;;;;21.50;99.90;;;;;;4995123;28;20084;-72
2023/09/27 09:37:28;;;;;;;0.65;0.65;;;21.50;99.90;;;;;;4997674;28;19909;-74
2023/09/27 09:40:13;;;;;;;0.32;0.32;;;21.20;99.90;;;;;;5005329;28;20478;-72
2023/09/27 09:42:39;;;;;;;0.00;0.00;;;21.00;99.90;;;;;;5009015;28;20406;-72
2023/09/27 09:45:06;;;;;;;1.15;0.90;;;20.90;99.90;;;;;;5005759;28;20022;-71
2023/09/27 09:47:41;;;;;;;0.00;0.00;;;21.10;99.90;;;;;;5006884;28;20026;-75
2023/09/27 09:50:08;;;;;;;1.20;0.70;;;21.30;99.90;;;;;;5000024;28;20027;-74
2023/09/27 09:52:39;;;;;;;0.38;0.38;;;21.30;99.90;;;;;;5005651;28;20038;-74
2023/09/27 09:55:08;;;;;;;0.47;0.40;;;21.40;99.90;;;;;;5004052;28;20379;-74
2023/09/27 09:57:36;;;;;;;0.63;0.63;;;21.40;99.90;;;;;;5005563;28;20243;-74
2023/09/27 10:00:13;;;;;;;4.45;1.35;;;21.40;99.90;;;;;;5005528;28;20034;-76
2023/09/27 10:02:50;;;;;;;0.00;0.00;;;21.40;99.90;;;;;;5005701;28;20053;-74
2023/09/27 10:05:22;;;;;;;1.98;0.88;;;21.80;99.90;;;;;;5003644;28;20080;-74
2023/09/27 10:07:50;;;;;;;1.90;1.02;;;21.40;99.90;;;;;;5004735;28;20034;-74
2023/09/27 10:10:18;;;;;;;0.25;0.25;;;21.00;99.90;;;;;;5004971;28;20038;-74
2023/09/27 10:12:45;;;;;;;2.63;1.33;;;21.10;99.90;;;;;;5004701;28;20021;-74
2023/09/27 10:15:11;;;;;;;1.27;1.17;;;21.00;99.90;;;;;;5006143;28;20394;-74
2023/09/27 10:17:37;;;;;;;1.05;0.95;;;20.80;99.90;;;;;;5002867;28;20054;-74
2023/09/27 10:20:14;;;;;;;0.15;0.10;;;20.90;99.90;;;;;;5007115;28;20069;-73
2023/09/27 10:22:41;;;;;;;0.55;0.55;;;21.30;99.90;;;;;;5007314;28;20050;-74
2023/09/27 10:25:28;;;;;;;3.03;1.27;;;21.40;99.90;;;;;;5007508;28;20064;-75
2023/09/27 10:28:04;;;;;;;0.08;0.08;;;21.30;99.90;;;;;;5006618;28;20038;-74
2023/09/27 10:30:45;;;;;;;2.70;1.02;;;21.30;99.90;;;;;;5006245;28;20057;-73
2023/09/27 10:33:25;;;;;;;0.30;0.30;;;21.10;99.90;;;;;;5004592;28;20084;-74
2023/09/27 10:36:03;;;;;;;0.08;0.08;;;21.30;99.90;;;;;;5003897;28;20026;-74
2023/09/27 10:38:41;;;;;;;0.00;0.00;;;21.70;99.90;;;;;;5006806;28;20076;-75
2023/09/27 10:41:07;;;;;;;0.00;0.00;;;22.40;99.90;;;;;;5006848;28;20054;-75
2023/09/27 10:43:38;;;;;;;0.47;0.47;;;22.10;99.90;;;;;;5011744;28;20030;-74
2023/09/27 10:46:04;;;;;;;0.90;0.90;;;21.90;99.90;;;;;;5015722;28;20037;-74
2023/09/27 10:48:35;;;;;;;0.00;0.00;;;22.20;99.90;;;;;;5016395;28;20025;-75
2023/09/27 10:51:02;;;;;;;0.32;0.32;;;22.40;99.90;;;;;;5016748;28;20152;-74
2023/09/27 10:53:28;;;;;;;0.60;0.50;;;22.90;99.90;;;;;;5016242;28;20097;-73
2023/09/27 10:55:54;;;;;;;0.15;0.15;;;23.10;99.90;;;;;;4999164;28;20030;-74
2023/09/27 10:58:21;;;;;;;1.17;0.63;;;23.40;99.90;;;;;;5015959;28;20390;-73
2023/09/27 11:00:55;;;;;;;0.10;0.10;;;23.70;99.90;;;;;;5017214;28;20505;-74
2023/09/27 11:03:23;;;;;;;0.63;0.43;;;24.10;99.90;;;;;;5015653;28;20034;-74
2023/09/27 11:05:49;;;;;;;2.10;0.98;;;23.90;99.90;;;;;;5016521;28;20033;-73
2023/09/27 11:08:23;;;;;;;0.20;0.20;;;23.70;99.90;;;;;;5015890;28;20538;-73
2023/09/27 11:10:51;;;;;;;0.17;0.17;;;23.30;99.90;;;;;;5016477;28;20531;-72
2023/09/27 11:13:17;;;;;;;1.42;1.25;;;23.20;99.90;;;;;;5016082;28;20498;-73
2023/09/27 11:15:44;;;;;;;5.10;1.38;;;23.50;99.90;;;;;;5014804;28;20463;-73
2023/09/27 11:18:10;;;;;;;0.30;0.30;;;23.70;99.90;;;;;;5015765;28;20497;-74
2023/09/27 11:20:36;;;;;;;5.35;1.75;;;23.70;99.90;;;;;;5014757;28;20018;-72
2023/09/27 11:23:02;;;;;;;1.13;0.88;;;23.60;99.90;;;;;;5014870;28;20549;-74
2023/09/27 11:25:30;;;;;;;0.00;0.00;;;23.40;99.90;;;;;;5015670;28;20048;-73
2023/09/27 11:27:56;;;;;;;0.00;0.00;;;23.60;99.90;;;;;;5016113;28;20026;-74
2023/09/27 11:30:32;;;;;;;0.00;0.00;;;24.00;99.90;;;;;;5015373;28;20038;-74
2023/09/27 11:33:04;;;;;;;0.63;0.28;;;24.30;99.90;;;;;;5015998;28;20059;-73
2023/09/27 11:35:31;;;;;;;0.00;0.00;;;24.50;99.90;;;;;;4998002;28;20029;-74
2023/09/27 11:38:09;;;;;;;0.10;0.10;;;24.20;99.90;;;;;;5015512;28;20033;-73
2023/09/27 11:40:37;;;;;;;0.32;0.32;;;24.90;99.90;;;;;;5030833;28;20069;-74
2023/09/27 11:43:04;;;;;;;0.00;0.00;;;25.80;99.90;;;;;;5014531;28;20037;-74
2023/09/27 11:45:43;;;;;;;0.00;0.00;;;26.20;99.90;;;;;;5015356;28;20020;-73
2023/09/27 11:48:09;;;;;;;0.00;0.00;;;26.20;99.90;;;;;;5015277;28;20038;-75
2023/09/27 11:50:35;;;;;;;3.75;0.85;;;26.20;99.90;;;;;;5015019;28;20021;-73
2023/09/27 11:53:01;;;;;;;0.00;0.00;;;25.70;99.90;;;;;;5015230;28;20026;-73
2023/09/27 11:55:27;;;;;;;0.60;0.60;;;25.40;99.90;;;;;;5015913;28;20040;-75
2023/09/27 11:57:57;;;;;;;0.32;0.32;;;25.30;99.90;;;;;;5016655;28;20037;-72
2023/09/27 12:00:23;;;;;;;2.85;1.17;;;25.70;99.90;;;;;;5015719;28;20088;-73
2023/09/27 12:02:49;;;;;;;0.52;0.50;;;26.10;99.90;;;;;;5015988;28;20132;-75
2023/09/27 12:05:15;;;;;;;0.00;0.00;;;25.60;99.90;;;;;;5014371;28;20026;-74
2023/09/27 12:07:42;;;;;;;0.40;0.40;;;25.60;99.90;;;;;;5015191;28;20045;-73
2023/09/27 12:10:09;;;;;;;2.17;1.55;;;25.70;99.90;;;;;;5015083;28;20029;-73
2023/09/27 12:12:35;;;;;;;0.30;0.30;;;25.60;99.90;;;;;;5015135;28;20033;-74
2023/09/27 12:15:00;;;;;;;0.00;0.00;;;25.90;99.90;;;;;;5013620;28;20471;-73
2023/09/27 12:17:27;;;;;;;0.63;0.63;;;26.60;99.90;;;;;;5013562;28;20029;-73
2023/09/27 12:19:53;;;;;;;0.88;0.57;;;27.20;99.90;;;;;;5013308;28;20402;-75
2023/09/27 12:22:20;;;;;;;0.65;0.15;;;28.10;98.10;;;;;;5014713;28;20490;-73
2023/09/27 12:24:47;;;;;;;37.47;9.45;;;27.60;97.70;;;;;;5014896;28;20072;-74
2023/09/27 12:27:12;;;;;;;0.00;0.00;;;28.20;97.10;;;;;;5014630;28;20018;-74
2023/09/27 12:29:38;;;;;;;0.00;0.00;;;28.20;97.50;;;;;;5014142;28;20036;-74
2023/09/27 12:32:05;;;;;;;0.08;0.08;;;29.10;96.90;;;;;;5014689;28;20531;-74
2023/09/27 12:34:31;;;;;;;0.10;0.10;;;29.70;94.80;;;;;;5013498;28;20061;-74
2023/09/27 12:36:57;;;;;;;0.00;0.00;;;28.90;95.80;;;;;;5014694;28;20068;-73
2023/09/27 12:39:23;;;;;;;6.03;4.75;;;28.90;96.20;;;;;;5014429;28;20028;-75
2023/09/27 12:41:49;;;;;;;0.00;0.00;;;29.80;94.70;;;;;;5014542;28;20424;-71
2023/09/27 12:44:15;;;;;;;0.10;0.10;;;30.80;94.20;;;;;;5014125;28;20030;-73
2023/09/27 12:46:40;;;;;;;0.70;0.30;;;31.10;92.90;;;;;;5014321;28;20030;-71
2023/09/27 12:49:07;;;;;;;3.33;0.47;;;29.70;94.00;;;;;;5013329;28;20600;-71
2023/09/27 12:51:33;;;;;;;0.10;0.10;;;29.30;94.60;;;;;;5013030;28;20026;-76
2023/09/27 12:53:58;;;;;;;0.17;0.13;;;28.90;94.80;;;;;;5014382;28;20036;-74